Time,TemperatureF,DewpointF,PressureIn,WindDirection,WindDirectionDegrees,WindSpeedMPH,WindSpeedGustMPH,Humidity,HourlyPrecipIn,Conditions,Clouds,dailyrainin,SoftwareType,DateUTC
2013-10-13 00:02:00,-999.0,-99.9,30.14,NNW,337,3.0,7.0,-999,-99.99,,,-99.99,,2013-10-13 04:02:00,
2013-10-13 00:14:00,59.0,51.0,30.14,NNW,337,3.0,7.0,74,0.00,,,0.00,,2013-10-13 04:14:00,
2013-10-13 00:23:00,58.0,50.0,30.15,NW,306,3.0,6.0,75,0.00,,,0.00,,2013-10-13 04:23:00,
2013-10-13 00:43:00,56.0,49.0,30.16,NW,325,4.0,6.0,76,0.00,,,0.00,,2013-10-13 04:43:00,
2013-10-13 00:54:00,56.0,48.0,30.16,NW,325,3.0,6.0,75,0.00,,,0.00,,2013-10-13 04:54:00,
2013-10-13 01:12:00,55.0,48.0,30.17,NW,314,2.0,7.0,76,0.00,,,0.00,,2013-10-13 05:12:00,
2013-10-13 01:23:00,53.0,47.0,30.17,NW,320,3.0,5.0,79,0.00,,,0.00,,2013-10-13 05:23:00,
2013-10-13 01:43:00,53.0,46.0,30.18,NW,322,1.0,5.0,77,0.00,,,0.00,,2013-10-13 05:43:00,
2013-10-13 01:52:00,53.0,47.0,30.18,NW,323,1.0,4.0,79,0.00,,,0.00,,2013-10-13 05:52:00,
2013-10-13 02:12:00,53.0,46.0,30.18,NW,318,1.0,3.0,78,0.00,,,0.00,,2013-10-13 06:12:00,
2013-10-13 02:22:00,52.0,45.0,30.19,NNW,327,0.0,3.0,78,0.00,,,0.00,,2013-10-13 06:22:00,
2013-10-13 02:42:00,51.0,45.0,30.19,NW,321,1.0,3.0,79,0.00,,,0.00,,2013-10-13 06:42:00,
2013-10-13 02:52:00,51.0,45.0,30.20,NNW,331,1.0,3.0,79,0.00,,,0.00,,2013-10-13 06:52:00,
2013-10-13 03:11:00,51.0,45.0,30.20,NW,325,0.0,5.0,79,0.00,,,0.00,,2013-10-13 07:11:00,
2013-10-13 03:22:00,50.0,44.0,30.21,NW,319,0.0,2.0,79,0.00,,,0.00,,2013-10-13 07:22:00,
2013-10-13 03:52:00,49.0,43.0,30.21,NW,318,0.0,3.0,81,0.00,,,0.00,,2013-10-13 07:52:00,
2013-10-13 04:12:00,49.0,43.0,30.21,NNW,338,0.0,2.0,80,0.00,,,0.00,,2013-10-13 08:12:00,
2013-10-13 04:22:00,49.0,43.0,30.21,NNW,338,0.0,1.0,80,0.00,,,0.00,,2013-10-13 08:22:00,
2013-10-13 04:42:00,47.0,42.0,30.22,NNW,338,0.0,2.0,82,0.00,,,0.00,,2013-10-13 08:42:00,
2013-10-13 04:52:00,47.0,42.0,30.22,NW,323,0.0,3.0,83,0.00,,,0.00,,2013-10-13 08:52:00,
2013-10-13 05:11:00,47.0,42.0,30.23,NW,323,0.0,2.0,82,0.00,,,0.00,,2013-10-13 09:11:00,
2013-10-13 05:22:00,47.0,42.0,30.24,NW,323,0.0,1.0,84,0.00,,,0.00,,2013-10-13 09:22:00,
2013-10-13 05:43:00,48.0,43.0,30.24,NW,323,0.0,2.0,82,0.00,,,0.00,,2013-10-13 09:43:00,
2013-10-13 05:53:00,47.0,42.0,30.25,NNW,339,0.0,1.0,82,0.00,,,0.00,,2013-10-13 09:53:00,
2013-10-13 06:13:00,47.0,42.0,30.26,NNW,339,0.0,2.0,82,0.00,,,0.00,,2013-10-13 10:13:00,
2013-10-13 06:23:00,47.0,42.0,30.26,NNW,339,0.0,2.0,83,0.00,,,0.00,,2013-10-13 10:23:00,
2013-10-13 06:43:00,46.0,41.0,30.27,NNW,344,0.0,2.0,84,0.00,,,0.00,,2013-10-13 10:43:00,
2013-10-13 06:53:00,46.0,41.0,30.27,NNW,344,0.0,0.0,84,0.00,,,0.00,,2013-10-13 10:53:00,
2013-10-13 07:12:00,45.0,41.0,30.28,NNW,344,0.0,0.0,85,0.00,,,0.00,,2013-10-13 11:12:00,
2013-10-13 07:22:00,45.0,41.0,30.28,NNW,344,0.0,0.0,86,0.00,,,0.00,,2013-10-13 11:22:00,
2013-10-13 07:42:00,44.0,40.0,30.28,NNW,344,0.0,0.0,85,0.00,,,0.00,,2013-10-13 11:42:00,
2013-10-13 07:52:00,42.0,38.0,30.29,NNW,344,0.0,0.0,86,0.00,,,0.00,,2013-10-13 11:52:00,
2013-10-13 08:12:00,42.0,39.0,30.29,NNW,344,0.0,0.0,89,0.00,,,0.00,,2013-10-13 12:12:00,
2013-10-13 08:21:00,41.0,39.0,30.29,NNW,344,0.0,0.0,91,0.00,,,0.00,,2013-10-13 12:21:00,
2013-10-13 08:42:00,41.0,38.0,30.30,NNW,344,0.0,0.0,90,0.00,,,0.00,,2013-10-13 12:42:00,
2013-10-13 08:52:00,40.0,38.0,30.31,NNW,344,0.0,0.0,92,0.00,,,0.00,,2013-10-13 12:52:00,
2013-10-13 09:12:00,40.0,38.0,30.31,NNW,344,0.0,0.0,92,0.00,,,0.00,,2013-10-13 13:12:00,
2013-10-13 09:22:00,42.0,40.0,30.32,NNW,344,0.0,0.0,93,0.00,,,0.00,,2013-10-13 13:22:00,
2013-10-13 09:42:00,44.0,42.0,30.32,NNW,344,0.0,0.0,92,0.00,,,0.00,,2013-10-13 13:42:00,
2013-10-13 09:52:00,45.0,43.0,30.33,NNW,344,0.0,0.0,92,0.00,,,0.00,,2013-10-13 13:52:00,
2013-10-13 10:11:00,49.0,45.0,30.34,NW,309,3.0,6.0,86,0.00,,,0.00,,2013-10-13 14:11:00,
2013-10-13 10:21:00,52.0,46.0,30.34,WNW,300,4.0,6.0,79,0.00,,,0.00,,2013-10-13 14:21:00,
2013-10-13 10:42:00,53.0,46.0,30.35,NW,320,2.0,7.0,76,0.00,,,0.00,,2013-10-13 14:42:00,
2013-10-13 10:52:00,54.0,46.0,30.35,NNW,339,0.0,6.0,74,0.00,,,0.00,,2013-10-13 14:52:00,
2013-10-13 11:12:00,56.0,46.0,30.35,NNW,329,2.0,6.0,69,0.00,,,0.00,,2013-10-13 15:12:00,
2013-10-13 11:22:00,57.0,46.0,30.36,North,360,0.0,5.0,66,0.00,,,0.00,,2013-10-13 15:22:00,
2013-10-13 11:43:00,59.0,45.0,30.36,NW,325,4.0,7.0,60,0.00,,,0.00,,2013-10-13 15:43:00,
2013-10-13 11:54:00,60.0,43.0,30.36,NNW,336,2.0,8.0,54,0.00,,,0.00,,2013-10-13 15:54:00,
2013-10-13 12:12:00,62.0,44.0,30.36,North,355,1.0,6.0,51,0.00,,,0.00,,2013-10-13 16:12:00,
2013-10-13 12:24:00,63.0,41.0,30.36,NNW,342,3.0,8.0,45,0.00,,,0.00,,2013-10-13 16:24:00,
2013-10-13 12:43:00,64.0,42.0,30.36,WNW,300,4.0,6.0,45,0.00,,,0.00,,2013-10-13 16:43:00,
2013-10-13 12:54:00,65.0,38.0,30.36,WNW,301,4.0,8.0,37,0.00,,,0.00,,2013-10-13 16:54:00,
2013-10-13 13:13:00,65.0,36.0,30.35,NE,37,4.0,7.0,34,0.00,,,0.00,,2013-10-13 17:13:00,
2013-10-13 13:22:00,66.0,38.0,30.35,NNW,342,3.0,11.0,35,0.00,,,0.00,,2013-10-13 17:22:00,
2013-10-13 13:52:00,66.0,36.0,30.35,North,5,4.0,9.0,33,0.00,,,0.00,,2013-10-13 17:52:00,
2013-10-13 14:12:00,67.0,38.0,30.35,NNE,28,2.0,8.0,34,0.00,,,0.00,,2013-10-13 18:12:00,
2013-10-13 14:22:00,67.0,36.0,30.34,NNW,340,4.0,10.0,32,0.00,,,0.00,,2013-10-13 18:22:00,
2013-10-13 14:42:00,67.0,37.0,30.34,North,355,2.0,10.0,33,0.00,,,0.00,,2013-10-13 18:42:00,
2013-10-13 14:52:00,67.0,35.0,30.33,North,11,4.0,11.0,31,0.00,,,0.00,,2013-10-13 18:52:00,
2013-10-13 15:11:00,68.0,35.0,30.33,NW,317,2.0,11.0,29,0.00,,,0.00,,2013-10-13 19:11:00,
2013-10-13 15:22:00,68.0,35.0,30.32,NNW,332,3.0,10.0,30,0.00,,,0.00,,2013-10-13 19:22:00,
2013-10-13 15:42:00,68.0,36.0,30.32,ENE,60,2.0,12.0,31,0.00,,,0.00,,2013-10-13 19:42:00,
2013-10-13 15:52:00,68.0,37.0,30.32,North,360,3.0,11.0,32,0.00,,,0.00,,2013-10-13 19:52:00,
2013-10-13 16:12:00,68.0,35.0,30.32,NNW,339,6.0,12.0,29,0.00,,,0.00,,2013-10-13 20:12:00,
2013-10-13 16:22:00,68.0,35.0,30.32,NW,319,7.0,14.0,29,0.00,,,0.00,,2013-10-13 20:22:00,
2013-10-13 16:43:00,68.0,36.0,30.32,NNW,333,1.0,9.0,31,0.00,,,0.00,,2013-10-13 20:43:00,
2013-10-13 16:52:00,68.0,35.0,30.31,North,5,2.0,8.0,29,0.00,,,0.00,,2013-10-13 20:52:00,
2013-10-13 17:11:00,68.0,33.0,30.32,NW,315,6.0,11.0,27,0.00,,,0.00,,2013-10-13 21:11:00,
2013-10-13 17:21:00,68.0,34.0,30.32,NNW,330,5.0,8.0,28,0.00,,,0.00,,2013-10-13 21:21:00,
2013-10-13 17:44:00,68.0,32.0,30.32,NNW,340,6.0,11.0,26,0.00,,,0.00,,2013-10-13 21:44:00,
2013-10-13 17:55:00,68.0,33.0,30.31,North,360,1.0,6.0,27,0.00,,,0.00,,2013-10-13 21:55:00,
2013-10-13 18:13:00,68.0,33.0,30.32,North,10,3.0,9.0,27,0.00,,,0.00,,2013-10-13 22:13:00,
2013-10-13 18:24:00,68.0,33.0,30.32,NNW,347,3.0,7.0,27,0.00,,,0.00,,2013-10-13 22:24:00,
2013-10-13 18:43:00,67.0,34.0,30.32,NNW,328,2.0,6.0,29,0.00,,,0.00,,2013-10-13 22:43:00,
2013-10-13 18:53:00,66.0,31.0,30.32,NW,316,3.0,7.0,27,0.00,,,0.00,,2013-10-13 22:53:00,
2013-10-13 19:12:00,65.0,33.0,30.32,NNW,337,1.0,5.0,30,0.00,,,0.00,,2013-10-13 23:12:00,
2013-10-13 19:22:00,64.0,34.0,30.32,NNW,341,0.0,3.0,32,0.00,,,0.00,,2013-10-13 23:22:00,
2013-10-13 19:42:00,62.0,33.0,30.32,NNW,341,0.0,3.0,34,0.00,,,0.00,,2013-10-13 23:42:00,
2013-10-13 19:52:00,60.0,35.0,30.33,NNE,19,0.0,3.0,39,0.00,,,0.00,,2013-10-13 23:52:00,
2013-10-13 20:12:00,58.0,39.0,30.33,NNE,32,0.0,2.0,50,0.00,,,0.00,,2013-10-14 00:12:00,
2013-10-13 20:22:00,56.0,41.0,30.34,ENE,57,0.0,2.0,57,0.00,,,0.00,,2013-10-14 00:22:00,
2013-10-13 20:42:00,55.0,41.0,30.34,NE,49,1.0,3.0,59,0.00,,,0.00,,2013-10-14 00:42:00,
2013-10-13 20:52:00,55.0,42.0,30.35,NE,56,2.0,5.0,61,0.00,,,0.00,,2013-10-14 00:52:00,
2013-10-13 21:11:00,54.0,41.0,30.35,NE,49,2.0,7.0,61,0.00,,,0.00,,2013-10-14 01:11:00,
2013-10-13 21:21:00,53.0,40.0,30.35,NE,43,1.0,4.0,62,0.00,,,0.00,,2013-10-14 01:21:00,
2013-10-13 21:42:00,53.0,41.0,30.35,East,84,2.0,4.0,64,0.00,,,0.00,,2013-10-14 01:42:00,
2013-10-13 21:52:00,52.0,40.0,30.36,ENE,69,1.0,3.0,64,0.00,,,0.00,,2013-10-14 01:52:00,
2013-10-13 22:11:00,52.0,41.0,30.36,ENE,66,3.0,5.0,65,0.00,,,0.00,,2013-10-14 02:11:00,
2013-10-13 22:22:00,51.0,40.0,30.36,ESE,105,3.0,5.0,65,0.00,,,0.00,,2013-10-14 02:22:00,
2013-10-13 22:42:00,51.0,40.0,30.37,ENE,59,1.0,7.0,65,0.00,,,0.00,,2013-10-14 02:42:00,
2013-10-13 22:52:00,51.0,40.0,30.37,ENE,69,3.0,8.0,66,0.00,,,0.00,,2013-10-14 02:52:00,
2013-10-13 23:12:00,51.0,40.0,30.37,ENE,64,4.0,9.0,66,0.00,,,0.00,,2013-10-14 03:12:00,
2013-10-13 23:22:00,50.0,39.0,30.37,ENE,68,2.0,5.0,67,0.00,,,0.00,,2013-10-14 03:22:00,
2013-10-13 23:44:00,50.0,40.0,30.37,East,88,4.0,7.0,68,0.00,,,0.00,,2013-10-14 03:44:00,
2013-10-13 23:55:00,49.0,39.0,30.38,ENE,67,3.0,5.0,69,0.00,,,0.00,,2013-10-14 03:55:00,